Time;durP1;ratioP1;P1;durP2;ratioP2;P2;SDS_P1;SDS_P2;PMS_P1;PMS_P2;Temp;Humidity;BMP_temperature;BMP_pressure;BME280_temperature;BME280_humidity;BME280_pressure;Samples;Min_cycle;Max_cycle;Signal;HPM_P1;HPM_P2
2023/11/20 00:01:33;;;;;;;23.98;4.07;;;;;;;10.52;100.00;100539.91;5115925;28;20087;-58
2023/11/20 00:04:03;;;;;;;26.73;4.95;;;;;;;10.51;100.00;100542.66;5115241;28;20118;-58
2023/11/20 00:06:32;;;;;;;25.73;3.85;;;;;;;10.51;100.00;100551.38;5115296;28;20047;-59
2023/11/20 00:09:00;;;;;;;21.55;4.45;;;;;;;10.52;100.00;100544.34;5115585;28;20043;-58
2023/11/20 00:11:28;;;;;;;21.50;4.35;;;;;;;10.52;100.00;100545.16;5113037;28;20067;-59
2023/11/20 00:13:56;;;;;;;23.98;3.90;;;;;;;10.51;100.00;100546.09;5114461;28;20467;-59
2023/11/20 00:16:24;;;;;;;21.33;4.10;;;;;;;10.49;100.00;100540.97;5115233;28;20051;-58
2023/11/20 00:18:53;;;;;;;22.42;3.88;;;;;;;10.47;100.00;100552.53;5115376;28;20122;-58
2023/11/20 00:21:22;;;;;;;20.90;5.43;;;;;;;10.49;100.00;100546.22;5115526;28;20051;-58
2023/11/20 00:23:50;;;;;;;27.38;4.53;;;;;;;10.52;100.00;100550.44;5115887;28;20482;-58
2023/11/20 00:26:19;;;;;;;18.30;3.85;;;;;;;10.48;100.00;100555.06;5115395;28;20049;-58
2023/11/20 00:28:47;;;;;;;20.80;3.85;;;;;;;10.46;100.00;100553.50;5115821;28;20071;-59
2023/11/20 00:31:15;;;;;;;20.38;4.55;;;;;;;10.45;100.00;100544.75;5115356;28;20047;-58
2023/11/20 00:33:43;;;;;;;20.58;4.30;;;;;;;10.47;100.00;100555.16;5115419;28;20105;-57
2023/11/20 00:36:11;;;;;;;18.15;3.83;;;;;;;10.47;100.00;100547.28;5115127;28;20040;-58
2023/11/20 00:38:41;;;;;;;23.35;5.20;;;;;;;10.47;100.00;100548.13;5115339;28;20513;-58
2023/11/20 00:41:10;;;;;;;19.48;3.83;;;;;;;10.46;100.00;100548.25;5113905;28;20410;-58
2023/11/20 00:43:39;;;;;;;19.38;4.15;;;;;;;10.46;100.00;100545.63;5114273;28;20046;-58
2023/11/20 00:46:07;;;;;;;17.17;4.10;;;;;;;10.44;100.00;100552.75;5113751;28;20100;-58
2023/11/20 00:48:35;;;;;;;16.40;3.72;;;;;;;10.43;100.00;100551.06;5114886;28;20122;-58
2023/11/20 00:51:04;;;;;;;13.93;3.42;;;;;;;10.42;100.00;100552.84;5114401;28;20047;-59
2023/11/20 00:53:32;;;;;;;18.48;4.03;;;;;;;10.41;100.00;100555.59;5114115;28;20039;-58
2023/11/20 00:56:02;;;;;;;14.93;3.47;;;;;;;10.37;100.00;100562.00;5113688;28;20054;-58
2023/11/20 00:58:30;;;;;;;15.88;3.55;;;;;;;10.37;100.00;100560.22;5114678;28;20417;-58
2023/11/20 01:01:01;;;;;;;17.58;3.70;;;;;;;10.37;100.00;100569.91;5112489;28;21129;-58
2023/11/20 01:03:32;;;;;;;20.70;4.38;;;;;;;10.36;100.00;100566.44;5114353;28;20452;-58
2023/11/20 01:06:03;;;;;;;17.25;4.60;;;;;;;10.34;100.00;100573.53;5114132;28;20550;-58
2023/11/20 01:08:35;;;;;;;14.35;3.85;;;;;;;10.34;100.00;100570.09;5113518;28;20071;-59
2023/11/20 01:11:08;;;;;;;17.27;3.83;;;;;;;10.37;100.00;100564.63;5113684;28;20048;-59
2023/11/20 01:13:36;;;;;;;15.48;3.40;;;;;;;10.34;100.00;100572.72;5114101;28;20047;-58
2023/11/20 01:16:06;;;;;;;14.98;3.63;;;;;;;10.32;100.00;100572.78;5114155;28;20494;-59
2023/11/20 01:18:35;;;;;;;13.55;3.40;;;;;;;10.31;100.00;100571.97;5114114;28;20483;-58
2023/11/20 01:21:04;;;;;;;15.80;3.45;;;;;;;10.32;100.00;100575.41;5113827;28;20184;-58
2023/11/20 01:23:32;;;;;;;16.83;3.72;;;;;;;10.30;100.00;100586.03;5112980;28;20039;-51
2023/11/20 01:26:00;;;;;;;14.52;3.10;;;;;;;10.29;100.00;100570.38;5108517;28;20048;-48
2023/11/20 01:28:30;;;;;;;18.85;3.58;;;;;;;10.31;100.00;100574.59;5112133;28;20517;-48
2023/11/20 01:30:58;;;;;;;20.10;4.03;;;;;;;10.36;100.00;100576.97;5112769;28;20051;-47
2023/11/20 01:33:26;;;;;;;13.43;3.60;;;;;;;10.32;100.00;100571.03;5112741;28;20048;-48
2023/11/20 01:35:54;;;;;;;12.70;3.50;;;;;;;10.34;100.00;100583.22;5113089;28;20048;-46
2023/11/20 01:38:23;;;;;;;18.95;4.28;;;;;;;10.32;100.00;100578.06;5112976;28;20040;-47
2023/11/20 01:40:54;;;;;;;17.02;3.95;;;;;;;10.28;100.00;100576.56;5113047;28;20047;-47
2023/11/20 01:43:22;;;;;;;19.02;4.18;;;;;;;10.29;100.00;100581.75;5112772;28;20046;-47
2023/11/20 01:46:01;;;;;;;14.38;3.63;;;;;;;10.28;100.00;100589.72;5112783;28;20032;-47
2023/11/20 01:48:29;;;;;;;18.80;3.95;;;;;;;10.29;100.00;100588.78;5112712;28;20046;-46
2023/11/20 01:50:57;;;;;;;16.52;4.20;;;;;;;10.27;100.00;100586.25;5112894;28;20045;-46
2023/11/20 01:53:27;;;;;;;19.15;4.03;;;;;;;10.23;100.00;100592.66;5112500;28;20083;-50
2023/11/20 01:55:55;;;;;;;21.05;4.25;;;;;;;10.24;100.00;100594.38;5112637;28;20403;-47
2023/11/20 01:58:25;;;;;;;21.85;3.72;;;;;;;10.24;100.00;100583.84;5112582;28;20036;-48
2023/11/20 02:00:54;;;;;;;19.48;3.35;;;;;;;10.24;100.00;100585.63;5111397;28;20070;-47
2023/11/20 02:03:23;;;;;;;19.00;4.00;;;;;;;10.21;100.00;100591.94;5112521;28;20058;-48
2023/11/20 02:05:51;;;;;;;21.55;4.00;;;;;;;10.21;100.00;100588.47;5112482;28;20047;-47
2023/11/20 02:08:20;;;;;;;23.45;4.03;;;;;;;10.22;100.00;100596.25;5112483;28;20448;-49
2023/11/20 02:10:48;;;;;;;22.65;3.75;;;;;;;10.21;100.00;100585.84;5112332;28;20615;-49
2023/11/20 02:13:18;;;;;;;18.88;3.15;;;;;;;10.22;100.00;100593.59;5110450;28;20112;-50
2023/11/20 02:15:46;;;;;;;18.15;2.65;;;;;;;10.24;100.00;100588.25;5107937;28;20217;-50
2023/11/20 02:18:33;;;;;;;17.40;2.72;;;;;;;10.24;100.00;100594.38;5108885;28;20071;-47
2023/11/20 02:21:02;;;;;;;17.60;3.20;;;;;;;10.22;100.00;100590.16;5111626;28;20044;-49
2023/11/20 02:23:30;;;;;;;16.48;3.08;;;;;;;10.23;100.00;100595.31;5110809;28;20035;-48
2023/11/20 02:26:12;;;;;;;20.30;3.15;;;;;;;10.17;100.00;100579.97;5112214;28;20118;-47
2023/11/20 02:28:51;;;;;;;18.55;2.97;;;;;;;10.15;100.00;100587.09;5112197;28;20082;-48
2023/11/20 02:31:21;;;;;;;19.67;2.65;;;;;;;10.12;100.00;100592.56;5112278;28;20402;-51
2023/11/20 02:33:49;;;;;;;16.10;2.70;;;;;;;10.11;100.00;100590.88;5110965;28;20145;-46
2023/11/20 02:36:17;;;;;;;18.02;2.72;;;;;;;10.13;100.00;100587.19;5112078;28;20050;-50
2023/11/20 02:38:47;;;;;;;14.20;2.45;;;;;;;10.14;100.00;100583.63;5109919;28;20044;-50
2023/11/20 02:41:15;;;;;;;12.57;2.63;;;;;;;10.15;100.00;100580.03;5106872;28;20097;-48
2023/11/20 02:43:46;;;;;;;21.52;2.97;;;;;;;10.19;100.00;100579.84;5111682;28;20417;-49
2023/11/20 02:46:14;;;;;;;20.00;2.58;;;;;;;10.15;100.00;100590.56;5108237;28;20036;-50
2023/11/20 02:48:44;;;;;;;15.43;2.75;;;;;;;10.11;100.00;100589.06;5110228;28;20529;-48
2023/11/20 02:51:13;;;;;;;22.45;3.10;;;;;;;10.08;100.00;100589.28;5109440;28;20056;-47
2023/11/20 02:53:41;;;;;;;17.75;3.10;;;;;;;10.10;100.00;100586.56;5108839;28;20052;-49
2023/11/20 02:56:09;;;;;;;13.25;2.67;;;;;;;10.10;100.00;100583.94;5105372;28;20490;-49
2023/11/20 02:58:38;;;;;;;15.95;3.38;;;;;;;10.05;100.00;100584.25;5110042;28;20046;-46
2023/11/20 03:01:09;;;;;;;15.25;2.88;;;;;;;10.07;100.00;100581.50;5111792;28;20040;-50
2023/11/20 03:03:39;;;;;;;13.60;2.67;;;;;;;10.06;100.00;100582.44;5111960;28;20043;-49
2023/11/20 03:06:09;;;;;;;19.60;2.72;;;;;;;10.04;100.00;100579.09;5111884;28;20126;-49
2023/11/20 03:08:38;;;;;;;14.25;2.60;;;;;;;10.05;100.00;100583.38;5112096;28;20081;-51
2023/11/20 03:11:07;;;;;;;19.10;3.17;;;;;;;10.02;100.00;100583.59;5111863;28;20036;-50
2023/11/20 03:13:40;;;;;;;16.80;2.60;;;;;;;10.03;100.00;100586.13;5111855;28;20104;-51
2023/11/20 03:16:08;;;;;;;15.75;3.03;;;;;;;10.05;100.00;100593.91;5111519;28;20040;-50
2023/11/20 03:18:37;;;;;;;15.52;2.55;;;;;;;10.05;100.00;100588.63;5111612;28;20109;-48
2023/11/20 03:21:06;;;;;;;14.40;2.67;;;;;;;10.04;100.00;100589.63;5110295;28;20051;-47
2023/11/20 03:23:35;;;;;;;14.80;2.97;;;;;;;10.02;100.00;100605.47;5111664;28;20047;-46
2023/11/20 03:26:03;;;;;;;16.20;3.20;;;;;;;10.06;100.00;100599.06;5109984;28;20043;-47
2023/11/20 03:28:32;;;;;;;20.38;3.42;;;;;;;10.05;100.00;100604.41;5107451;28;20044;-46
2023/11/20 03:31:00;;;;;;;14.40;3.05;;;;;;;10.02;100.00;100597.59;5111804;28;20043;-49
2023/11/20 03:33:28;;;;;;;17.90;3.92;;;;;;;10.04;100.00;100595.69;5112075;28;20502;-46
2023/11/20 03:35:56;;;;;;;18.20;3.20;;;;;;;10.05;100.00;100594.75;5112114;28;20148;-46
2023/11/20 03:38:24;;;;;;;18.60;3.15;;;;;;;10.04;100.00;100603.56;5111936;28;20495;-48
2023/11/20 03:40:54;;;;;;;20.02;4.07;;;;;;;9.98;100.00;100599.56;5112663;28;20088;-46
2023/11/20 03:43:23;;;;;;;19.30;4.72;;;;;;;10.00;100.00;100596.00;5114908;28;20035;-50
2023/11/20 03:45:51;;;;;;;20.92;4.10;;;;;;;10.01;100.00;100603.78;5115214;28;20100;-48
2023/11/20 03:48:20;;;;;;;21.58;3.67;;;;;;;9.97;100.00;100611.03;5111598;28;20077;-48
2023/11/20 03:50:48;;;;;;;18.98;4.03;;;;;;;9.97;100.00;100605.75;5111901;28;20070;-50
2023/11/20 03:53:16;;;;;;;24.88;3.97;;;;;;;9.96;100.00;100606.69;5114839;28;20556;-46
2023/11/20 03:55:44;;;;;;;18.73;3.05;;;;;;;9.98;100.00;100606.63;5114850;28;20071;-50
2023/11/20 03:58:13;;;;;;;17.58;3.60;;;;;;;9.97;100.00;100608.41;5114558;28;20055;-50
2023/11/20 04:00:42;;;;;;;20.30;3.10;;;;;;;9.98;100.00;100607.47;5114790;27;20105;-47
2023/11/20 04:03:10;;;;;;;21.17;3.30;;;;;;;9.98;100.00;100606.63;5113197;28;20051;-47
2023/11/20 04:05:39;;;;;;;22.33;3.00;;;;;;;9.92;100.00;100604.41;5114627;28;20031;-48
2023/11/20 04:08:07;;;;;;;19.08;3.28;;;;;;;9.95;100.00;100606.81;5114565;28;20047;-46
2023/11/20 04:10:38;;;;;;;20.88;3.25;;;;;;;9.93;100.00;100612.16;5114580;28;20062;-47
2023/11/20 04:13:08;;;;;;;18.98;2.97;;;;;;;9.91;100.00;100602.69;5114608;28;20052;-47
2023/11/20 04:15:41;;;;;;;21.08;3.00;;;;;;;9.93;100.00;100609.53;5114479;27;20563;-46
2023/11/20 04:18:10;;;;;;;20.58;3.40;;;;;;;9.94;100.00;100603.34;5114430;28;20040;-47
2023/11/20 04:20:38;;;;;;;21.63;3.10;;;;;;;9.95;100.00;100607.66;5113111;28;20047;-47
2023/11/20 04:23:06;;;;;;;17.33;3.08;;;;;;;9.93;100.00;100601.66;5113355;28;20047;-49
2023/11/20 04:25:35;;;;;;;19.10;3.50;;;;;;;9.91;100.00;100606.19;5114157;28;20036;-46
2023/11/20 04:28:03;;;;;;;18.85;2.65;;;;;;;9.90;100.00;100607.13;5114325;28;20048;-48
2023/11/20 04:30:31;;;;;;;16.38;2.63;;;;;;;9.92;100.00;100601.78;5114251;28;20424;-45
2023/11/20 04:33:00;;;;;;;14.95;3.20;;;;;;;9.90;100.00;100598.41;5114184;28;20052;-47
2023/11/20 04:35:29;;;;;;;15.68;2.50;;;;;;;9.92;100.00;100601.78;5114101;28;20538;-47
2023/11/20 04:37:59;;;;;;;19.30;3.22;;;;;;;9.92;100.00;100602.59;5113994;28;20040;-46
2023/11/20 04:40:27;;;;;;;22.02;3.45;;;;;;;9.88;100.00;100603.75;5108804;28;20561;-49
2023/11/20 04:42:56;;;;;;;18.80;3.22;;;;;;;9.89;100.00;100604.59;5110831;28;20124;-50
2023/11/20 04:45:24;;;;;;;18.50;2.63;;;;;;;9.89;100.00;100604.59;5113922;28;20118;-48
2023/11/20 04:47:52;;;;;;;18.70;2.90;;;;;;;9.95;100.00;100599.78;5112037;28;20679;-46
2023/11/20 04:50:22;;;;;;;14.70;2.60;;;;;;;9.91;100.00;100606.19;5110044;28;20497;-46
2023/11/20 04:52:53;;;;;;;15.45;2.70;;;;;;;9.91;100.00;100608.81;5110929;28;20047;-50
2023/11/20 04:55:21;;;;;;;17.52;2.63;;;;;;;9.91;100.00;100611.44;5110464;28;20040;-49
2023/11/20 04:57:49;;;;;;;19.88;2.95;;;;;;;9.89;100.00;100615.94;5110633;28;20055;-48
2023/11/20 05:00:18;;;;;;;22.80;3.85;;;;;;;9.89;100.00;100615.13;5110283;28;20055;-51
2023/11/20 05:02:46;;;;;;;17.27;2.72;;;;;;;9.90;100.00;100619.44;5111732;28;20051;-52
2023/11/20 05:05:14;;;;;;;15.55;3.10;;;;;;;9.89;100.00;100615.94;5111424;28;20055;-50
2023/11/20 05:07:44;;;;;;;15.93;3.10;;;;;;;9.86;100.00;100612.66;5110222;28;20047;-46
2023/11/20 05:10:12;;;;;;;16.95;3.03;;;;;;;9.87;100.00;100609.09;5110752;28;20131;-46
2023/11/20 05:12:40;;;;;;;15.43;3.60;;;;;;;9.87;100.00;100609.09;5113294;27;20510;-46
2023/11/20 05:15:10;;;;;;;22.10;2.85;;;;;;;9.84;100.00;100609.31;5113441;28;20116;-47
2023/11/20 05:17:38;;;;;;;21.70;2.90;;;;;;;9.80;100.00;100606.03;5113232;28;20058;-47
2023/11/20 05:20:10;;;;;;;17.60;2.85;;;;;;;9.80;100.00;100606.03;5112945;28;20044;-46
2023/11/20 05:22:39;;;;;;;18.83;3.45;;;;;;;9.80;100.00;100608.66;5112896;28;20058;-46
2023/11/20 05:25:09;;;;;;;21.52;3.22;;;;;;;9.82;100.00;100610.25;5113359;28;20556;-47
2023/11/20 05:27:38;;;;;;;17.25;2.88;;;;;;;9.84;100.00;100611.94;5113134;28;20035;-49
2023/11/20 05:30:10;;;;;;;16.00;2.53;;;;;;;9.82;100.00;100614.66;5113178;28;20079;-48
2023/11/20 05:32:38;;;;;;;21.55;3.08;;;;;;;9.81;100.00;100612.97;5112991;28;20043;-46
2023/11/20 05:35:07;;;;;;;18.38;3.17;;;;;;;9.80;100.00;100619.16;5112972;28;20101;-46
2023/11/20 05:37:39;;;;;;;18.20;2.53;;;;;;;9.82;100.00;100614.66;5111640;28;20047;-47
2023/11/20 05:40:10;;;;;;;18.52;3.08;;;;;;;9.79;100.00;100618.34;5112779;28;20142;-50
2023/11/20 05:42:41;;;;;;;17.45;2.90;;;;;;;9.78;100.00;100608.75;5112821;28;20440;-47
2023/11/20 05:45:10;;;;;;;19.45;3.83;;;;;;;9.76;100.00;100613.28;5112867;28;20051;-48
2023/11/20 05:47:38;;;;;;;19.63;3.58;;;;;;;9.74;100.00;100625.66;5111354;28;20044;-47
2023/11/20 05:50:07;;;;;;;20.25;3.25;;;;;;;9.70;100.00;100620.72;5108781;28;20054;-46
2023/11/20 05:52:35;;;;;;;17.85;3.33;;;;;;;9.69;100.00;100613.78;5112022;28;20036;-46
2023/11/20 05:55:04;;;;;;;18.60;3.55;;;;;;;9.70;100.00;100624.19;5111186;28;20052;-47
2023/11/20 05:57:34;;;;;;;16.60;2.75;;;;;;;9.67;100.00;100621.75;5112428;28;20586;-47
2023/11/20 06:00:03;;;;;;;13.93;2.88;;;;;;;9.67;100.00;100615.66;5112577;28;20123;-46
2023/11/20 06:02:31;;;;;;;15.32;2.45;;;;;;;9.66;100.00;100624.50;5111232;28;21006;-49
2023/11/20 06:04:59;;;;;;;15.55;2.80;;;;;;;9.62;100.00;100624.66;5110531;28;20051;-50
2023/11/20 06:07:27;;;;;;;17.05;2.90;;;;;;;9.59;100.00;100616.16;5110212;28;20409;-58
2023/11/20 06:09:55;;;;;;;16.75;2.80;;;;;;;9.61;100.00;100622.16;5113945;28;20051;-58
2023/11/20 06:12:24;;;;;;;14.88;3.20;;;;;;;9.55;100.00;100620.75;5114055;28;20065;-58
2023/11/20 06:14:53;;;;;;;21.45;3.00;;;;;;;9.53;100.00;100620.03;5113822;28;20044;-58
2023/11/20 06:17:22;;;;;;;18.58;3.25;;;;;;;9.52;100.00;100622.75;5113917;28;20042;-58
2023/11/20 06:19:50;;;;;;;17.17;3.45;;;;;;;9.51;100.00;100619.28;5113854;28;20541;-58
2023/11/20 06:22:18;;;;;;;18.17;2.80;;;;;;;9.51;100.00;100621.91;5113858;28;20534;-58
2023/11/20 06:24:46;;;;;;;18.77;3.13;;;;;;;9.52;100.00;100623.59;5114052;28;20397;-58
2023/11/20 06:27:14;;;;;;;14.43;3.13;;;;;;;9.54;100.00;100621.69;5113895;28;20093;-58
2023/11/20 06:29:42;;;;;;;14.75;2.65;;;;;;;9.52;100.00;100623.59;5113792;28;20046;-57
2023/11/20 06:32:13;;;;;;;16.65;3.08;;;;;;;9.51;100.00;100624.53;5113975;28;20474;-57
2023/11/20 06:34:41;;;;;;;16.83;3.38;;;;;;;9.51;100.00;100627.16;5113490;28;20433;-57
2023/11/20 06:37:09;;;;;;;22.08;3.05;;;;;;;9.51;100.00;100632.41;5112205;28;20526;-57
2023/11/20 06:39:40;;;;;;;19.75;2.95;;;;;;;9.52;100.00;100636.72;5113352;28;20043;-58
2023/11/20 06:42:09;;;;;;;18.10;3.55;;;;;;;9.51;100.00;100640.28;5113606;28;20067;-58
2023/11/20 06:44:38;;;;;;;21.00;3.75;;;;;;;9.47;100.00;100644.91;5112266;28;20081;-58
2023/11/20 06:47:07;;;;;;;15.35;2.55;;;;;;;9.46;100.00;100650.22;5113800;28;20039;-58
2023/11/20 06:49:37;;;;;;;14.48;3.53;;;;;;;9.45;100.00;100648.56;5113266;28;20087;-58
2023/11/20 06:52:08;;;;;;;15.95;2.45;;;;;;;9.40;100.00;100654.09;5113366;28;20495;-58
2023/11/20 06:54:36;;;;;;;17.85;3.45;;;;;;;9.41;100.00;100660.19;5113323;28;20093;-58
2023/11/20 06:57:05;;;;;;;19.02;3.10;;;;;;;9.35;100.00;100655.31;5113418;28;20043;-58
2023/11/20 06:59:34;;;;;;;15.10;2.60;;;;;;;9.33;100.00;100659.84;5114047;28;20042;-58
2023/11/20 07:02:02;;;;;;;19.38;3.17;;;;;;;9.27;100.00;100661.03;5113367;28;20056;-58
2023/11/20 07:04:35;;;;;;;21.38;3.50;;;;;;;9.30;100.00;100666.94;5113439;28;20403;-58
2023/11/20 07:07:05;;;;;;;18.33;3.72;;;;;;;9.26;100.00;100672.50;5116530;28;20470;-58
2023/11/20 07:09:36;;;;;;;20.42;3.15;;;;;;;9.29;100.00;100669.66;5115918;28;20483;-57
2023/11/20 07:12:05;;;;;;;23.23;2.92;;;;;;;9.25;100.00;100679.50;5117217;28;20109;-58
2023/11/20 07:14:33;;;;;;;16.98;3.22;;;;;;;9.28;100.00;100679.34;5117160;28;20051;-59
2023/11/20 07:17:01;;;;;;;20.80;3.70;;;;;;;9.27;100.00;100682.91;5117035;28;20127;-58
2023/11/20 07:19:32;;;;;;;17.80;4.20;;;;;;;9.27;100.00;100672.41;5116960;28;20105;-58
2023/11/20 07:22:00;;;;;;;19.42;3.75;;;;;;;9.30;100.00;100680.06;5117010;28;20075;-59
2023/11/20 07:24:30;;;;;;;22.75;3.55;;;;;;;9.27;100.00;100677.66;5116868;28;20084;-58
2023/11/20 07:26:58;;;;;;;22.52;3.90;;;;;;;9.25;100.00;100679.50;5116675;27;20044;-58
2023/11/20 07:29:26;;;;;;;13.15;2.80;;;;;;;9.25;100.00;100678.69;5116755;28;20044;-58
2023/11/20 07:31:54;;;;;;;22.95;3.72;;;;;;;9.29;100.00;100688.88;5116619;28;20040;-58
2023/11/20 07:34:23;;;;;;;19.83;3.45;;;;;;;9.28;100.00;100675.84;5116299;28;20741;-58
2023/11/20 07:36:55;;;;;;;23.02;3.78;;;;;;;9.27;100.00;100679.41;5116784;28;20036;-58
2023/11/20 07:39:24;;;;;;;21.13;3.40;;;;;;;9.26;100.00;100683.81;5115929;28;20048;-58
2023/11/20 07:41:57;;;;;;;24.77;3.20;;;;;;;9.22;100.00;100686.75;5116061;28;20063;-59
2023/11/20 07:44:26;;;;;;;18.95;3.10;;;;;;;9.22;100.00;100692.00;5116452;28;20517;-59
2023/11/20 07:46:57;;;;;;;19.30;2.90;;;;;;;9.23;100.00;100691.03;5116466;28;20054;-58
2023/11/20 07:49:26;;;;;;;18.33;3.50;;;;;;;9.23;100.00;100688.41;5114892;28;20047;-59
2023/11/20 07:51:55;;;;;;;17.20;3.80;;;;;;;9.24;100.00;100690.09;5114798;28;20058;-58
2023/11/20 07:54:23;;;;;;;27.70;4.45;;;;;;;9.24;100.00;100692.72;5115915;28;20050;-57
2023/11/20 07:56:51;;;;;;;25.13;4.60;;;;;;;9.26;100.00;100696.13;5114600;28;20505;-58
2023/11/20 07:59:20;;;;;;;19.88;3.88;;;;;;;9.26;100.00;100701.38;5116221;28;20086;-59
2023/11/20 08:01:49;;;;;;;22.88;3.53;;;;;;;9.23;100.00;100693.66;5115978;28;20063;-58
2023/11/20 08:04:17;;;;;;;20.58;2.88;;;;;;;9.23;100.00;100706.78;5116005;28;20390;-58
2023/11/20 08:06:46;;;;;;;23.83;3.50;;;;;;;9.29;100.00;100702.00;5116245;28;20074;-58
2023/11/20 08:09:15;;;;;;;20.60;3.60;;;;;;;9.35;100.00;100702.56;5114659;28;20050;-57
2023/11/20 08:11:44;;;;;;;22.25;4.40;;;;;;;9.34;100.00;100700.88;5116125;28;20058;-57
2023/11/20 08:14:14;;;;;;;18.40;2.95;;;;;;;9.32;100.00;100706.22;5115693;28;20138;-57
2023/11/20 08:16:43;;;;;;;23.35;3.33;;;;;;;9.34;100.00;100698.25;5115607;28;20097;-58
2023/11/20 08:19:14;;;;;;;24.73;3.70;;;;;;;9.39;100.00;100711.94;5115231;28;20101;-58
2023/11/20 08:21:42;;;;;;;21.80;3.72;;;;;;;9.40;100.00;100711.81;5115777;28;20133;-58
2023/11/20 08:24:11;;;;;;;21.83;3.25;;;;;;;9.45;100.00;100701.88;5116018;28;20039;-58
2023/11/20 08:26:40;;;;;;;25.33;3.70;;;;;;;9.57;100.00;100708.16;5115813;28;20048;-58
2023/11/20 08:29:08;;;;;;;20.70;4.53;;;;;;;9.64;100.00;100714.69;5114066;28;20051;-58
2023/11/20 08:31:36;;;;;;;16.98;3.15;;;;;;;9.75;100.00;100713.19;5115648;28;20043;-58
2023/11/20 08:34:07;;;;;;;24.65;3.47;;;;;;;9.80;100.00;100724.22;5115105;28;20039;-58
2023/11/20 08:36:35;;;;;;;15.80;3.28;;;;;;;9.85;100.00;100724.78;5115428;28;20043;-58
2023/11/20 08:39:06;;;;;;;24.98;3.42;;;;;;;9.91;100.00;100719.16;5114141;28;20100;-58
2023/11/20 08:41:34;;;;;;;22.50;3.72;;;;;;;9.89;100.00;100720.19;5115414;28;20126;-58
2023/11/20 08:44:03;;;;;;;17.65;3.50;;;;;;;9.91;100.00;100718.28;5115055;28;20059;-58
2023/11/20 08:46:33;;;;;;;20.95;3.90;;;;;;;10.01;100.00;100718.53;5115091;28;20067;-58
2023/11/20 08:49:02;;;;;;;21.08;3.88;;;;;;;10.00;100.00;100711.63;5115616;28;20047;-58
2023/11/20 08:51:32;;;;;;;19.52;3.33;;;;;;;10.02;100.00;100715.84;5114137;28;20055;-58
2023/11/20 08:54:01;;;;;;;19.08;3.08;;;;;;;10.01;100.00;100713.28;5115425;28;20048;-57
2023/11/20 08:56:31;;;;;;;18.27;3.63;;;;;;;10.01;100.00;100713.28;5115292;28;20055;-58
2023/11/20 08:58:59;;;;;;;21.13;4.18;;;;;;;10.02;100.00;100709.72;5115517;28;20078;-58
2023/11/20 09:01:32;;;;;;;19.67;3.85;;;;;;;10.04;100.00;100710.47;5115153;28;20050;-58
2023/11/20 09:04:00;;;;;;;;;;;;;;;10.09;100.00;100711.84;5115605;28;20551;-58
2023/11/20 09:06:28;;;;;;;14.40;3.20;;;;;;;10.15;100.00;100706.19;5113438;28;19926;-58
2023/11/20 09:08:58;;;;;;;22.55;3.60;;;;;;;10.14;100.00;100707.16;5114926;28;20039;-58
2023/11/20 09:11:28;;;;;;;22.05;3.38;;;;;;;10.19;100.00;100711.25;5114858;28;20039;-59
2023/11/20 09:13:57;;;;;;;23.33;4.68;;;;;;;10.23;100.00;100710.94;5114988;28;20490;-58
2023/11/20 09:16:25;;;;;;;16.38;3.83;;;;;;;10.26;100.00;100702.84;5114923;28;20043;-58
2023/11/20 09:18:53;;;;;;;25.48;3.67;;;;;;;10.38;100.00;100705.66;5114641;28;20031;-58
2023/11/20 09:21:22;;;;;;;19.63;3.95;;;;;;;10.40;100.00;100707.25;5113081;28;20048;-58
2023/11/20 09:23:50;;;;;;;23.30;4.53;;;;;;;10.35;100.00;100709.34;5114471;28;20035;-57
2023/11/20 09:26:20;;;;;;;22.63;3.50;;;;;;;10.43;100.00;100700.91;5114088;28;20055;-59
2023/11/20 09:28:49;;;;;;;18.42;4.05;;;;;;;10.57;100.00;100706.09;5112944;28;20394;-58
2023/11/20 09:31:18;;;;;;;25.45;4.07;;;;;;;10.67;100.00;100705.50;5114641;28;20118;-58
2023/11/20 09:33:48;;;;;;;22.20;4.07;;;;;;;10.82;100.00;100715.81;5114461;28;20043;-58
2023/11/20 09:36:18;;;;;;;23.27;4.13;;;;;;;10.87;100.00;100710.22;5113089;28;20051;-57
2023/11/20 09:38:49;;;;;;;20.23;3.85;;;;;;;10.92;100.00;100715.16;5114311;28;20059;-58
2023/11/20 09:41:21;;;;;;;20.38;3.90;;;;;;;10.92;100.00;100717.78;5113755;28;20040;-58
2023/11/20 09:43:53;;;;;;;24.00;4.32;;;;;;;10.95;100.00;100721.06;5113580;28;20053;-58
2023/11/20 09:46:22;;;;;;;23.58;4.35;;;;;;;10.93;100.00;100716.84;5114208;28;20055;-58
2023/11/20 09:48:51;;;;;;;20.17;3.60;;;;;;;10.99;100.00;100717.28;5114203;28;20050;-58
2023/11/20 09:51:23;;;;;;;18.90;3.60;;;;;;;11.10;100.00;100718.34;5114200;28;20119;-58
2023/11/20 09:53:53;;;;;;;21.55;3.75;;;;;;;11.12;100.00;100716.44;5113406;28;20132;-58
2023/11/20 09:56:22;;;;;;;20.92;3.88;;;;;;;11.25;100.00;100724.34;5112520;28;20161;-57
2023/11/20 09:58:51;;;;;;;17.70;4.95;;;;;;;11.26;100.00;100712.81;5113889;28;20498;-58
2023/11/20 10:01:20;;;;;;;20.10;3.53;;;;;;;11.31;100.00;100714.19;5113659;28;20409;-57
2023/11/20 10:03:53;;;;;;;21.90;4.70;;;;;;;11.29;100.00;100700.31;5113797;28;20047;-58
2023/11/20 10:06:25;;;;;;;20.88;4.55;;;;;;;11.36;100.00;100702.47;5113775;28;20108;-58
2023/11/20 10:08:56;;;;;;;22.75;4.95;;;;;;;11.35;100.00;100699.03;5113518;28;20498;-58
2023/11/20 10:11:27;;;;;;;18.38;4.50;;;;;;;11.39;100.00;100702.28;5112152;28;20048;-58
2023/11/20 10:13:56;;;;;;;22.17;4.07;;;;;;;11.43;100.00;100701.94;5112448;28;20054;-58
2023/11/20 10:16:26;;;;;;;17.63;4.25;;;;;;;11.47;100.00;100706.03;5113081;28;20047;-58
2023/11/20 10:18:55;;;;;;;19.33;4.90;;;;;;;11.51;100.00;100704.06;5113572;28;20118;-58
2023/11/20 10:21:25;;;;;;;24.50;5.38;;;;;;;11.58;100.00;100707.91;5113502;28;20044;-58
2023/11/20 10:23:52;;;;;;;19.83;4.78;;;;;;;11.61;100.00;100702.41;5112272;28;20482;-58
2023/11/20 10:26:21;;;;;;;23.00;5.28;;;;;;;11.62;100.00;100698.00;5113241;28;20054;-58
2023/11/20 10:28:50;;;;;;;18.00;5.50;;;;;;;11.62;100.00;100701.47;5112272;28;20047;-58
2023/11/20 10:31:19;;;;;;;19.50;5.32;;;;;;;11.63;100.00;100703.16;5113492;28;20040;-58
2023/11/20 10:34:02;;;;;;;22.83;5.20;;;;;;;11.59;100.00;100704.34;5112765;28;20528;-58
2023/11/20 10:36:33;;;;;;;19.67;4.95;;;;;;;11.57;100.00;100706.22;5111282;28;20044;-51
2023/11/20 10:39:02;;;;;;;17.23;5.13;;;;;;;11.58;100.00;100701.81;5113007;28;20051;-57
2023/11/20 10:41:30;;;;;;;21.58;5.65;;;;;;;11.58;100.00;100696.56;5111510;28;20048;-57
2023/11/20 10:44:01;;;;;;;16.90;5.05;;;;;;;11.62;100.00;100698.84;5116700;28;20406;-59
2023/11/20 10:46:29;;;;;;;20.67;4.82;;;;;;;11.70;100.00;100697.44;5116521;28;20053;-58
2023/11/20 10:49:06;;;;;;;18.60;4.75;;;;;;;11.58;100.00;100694.75;5117587;28;21024;-57
2023/11/20 10:51:35;;;;;;;22.60;5.35;;;;;;;11.69;100.00;100693.16;5117784;28;20054;-54
2023/11/20 10:54:14;;;;;;;17.90;5.35;;;;;;;11.70;100.00;100686.91;5116412;28;20081;-50
2023/11/20 10:56:44;;;;;;;22.83;6.18;;;;;;;11.64;100.00;100680.28;5116181;28;20048;-49
2023/11/20 10:59:21;;;;;;;19.88;5.38;;;;;;;11.64;100.00;100681.16;5115901;28;20054;-50
2023/11/20 11:01:52;;;;;;;19.15;6.18;;;;;;;11.66;100.00;100679.22;5115792;28;20129;-47
2023/11/20 11:04:21;;;;;;;17.85;4.72;;;;;;;11.69;100.00;100683.44;5116169;28;20062;-48
2023/11/20 11:06:50;;;;;;;20.40;5.60;;;;;;;11.69;100.00;100677.34;5115943;28;20104;-49
2023/11/20 11:09:19;;;;;;;18.60;5.68;;;;;;;11.74;100.00;100675.19;5115896;28;20039;-49
2023/11/20 11:11:50;;;;;;;19.08;5.57;;;;;;;11.64;100.00;100673.25;5115756;28;20344;-47
2023/11/20 11:14:20;;;;;;;18.27;5.35;;;;;;;11.69;100.00;100670.28;5115520;28;20062;-45
2023/11/20 11:16:54;;;;;;;19.23;4.90;;;;;;;11.73;100.00;100663.00;5115669;28;20494;-48
2023/11/20 11:19:30;;;;;;;18.70;5.25;;;;;;;11.71;100.00;100667.53;5115725;28;20035;-45
2023/11/20 11:22:02;;;;;;;18.67;5.07;;;;;;;11.73;100.00;100663.81;5115896;28;20123;-47